Amalia, New Mexico
Current Conditions -  °F | °C
As of 9:55 AM on Friday 28 Nov 2014 (Local Time) from KSKX Reporting Station
Clear Clear  
Wind Chill: 39°   Ceiling: Unl
Heat Index: 39°   Visibility: 10mi
Dew Point: 23°   Wind: 0mph
Humidity: 52%   Direction: NA
Pressure: 30.31"   Gusts: NA
Location:  36.94°N, 105.45°W
Report Text: KSKX 281655Z AUTO 00000KT 10SM CLR 04/M05 A3031 RMK AO1
Loading
Personal Weather Stations






























Interactive Weather Map New forecast layout! Learn more

10-Day Weather Forecast

Advertisements
Track Severe Weather on mobile